Ride Results

Tooraweenah (20-04-2013)
Ride distance: 80.0 km

Outcomes - Tooraweenah (20-04-2013)
Division No. of Entries Retired / DNE Completed Withdrawn Ineligible V/O Percentage Completed
HW 9 - 7 - - 2 77.78%
MW 21 - 18 2 - 1 85.71%
LW 11 - 11 - - - 100.00%
JN 2 - 2 - - - 100.00%
Totals 43 - 38 2 - 3 88.37%
Results - Tooraweenah (20-04-2013)
No. Rider Horse Place Time Leg Speeds Total
Km/Hr
H/R bpm
Heavyweight
422 Roy Barsby Dumaresq Buzz 1 (BC) 5:55:00 14.8, 12.4 13.52 34, 48, 46 (Avg:47)
427 Julie Dixon Baranne Bedouin 2 7:06:00 12.5, 10.2 11.27 42, 42, 54 (Avg:48)
429 Peter Bonham Box Hill Ralph 3 7:48:00 10.4, 10.0 10.26 30, 40, 52 (Avg:46)
424 Steve Brooks A'landell Pirate 4 7:51:00 11.7, 8.9 10.19 38, 42, 44 (Avg:43)
426 Jane Martin Kiljora Park Playboy's Shah-Razz 5 8:34:00 10.9, 8.1 9.34 34, 40, 44 (Avg:42)
428 Allan Caslick Starwest Scimilou 6 8:38:00 10.4, 8.3 9.27 35, 51, 50 (Avg:50)
425 Rod Mitchell Aloha Tribal Warrior 7 8:52:00 9.7, 8.3 9.02 30, 44, 52 (Avg:48)
423 Paddy Smith Akifa Farras Mangu Heart Rate L2 0:00:00 15.1, 12.1 - 40, 46, 65 (Avg:55)
421 Robin Cameron Cherryford Jordan Heart Rate L1 0:00:00 8.0 - 39, 55 (Avg:55)
Middleweight
301 Sandi Brown Ithilien Arwen 1 6:09:00 15.1, 11.3 13.01 34, 47, 43 (Avg:45)
304 Dean Walkom Santander Aladdin 2 6:19:00 14.5, 11.2 12.66 35, 42, 48 (Avg:45)
320 Sonia Bonham Box Hill Bullzeye 3 6:33:00 13.9, 10.8 12.21 28, 34, 40 (Avg:37)
302 Victoria Bonham Bridle Track Bogart 4 7:04:00 12.7, 10.1 11.32 39, 40, 56 (Avg:48)
321 Mary Symons Back Creek Karen 4 7:04:00 12.9, 10.0 11.32 40, 44, 38 (Avg:41)
307 Ben Hudson Dumaresq Jackson 6 7:49:00 11.2, 9.3 10.23 31, 38, 44 (Avg:41)
308 Deanna Loomes Dumaresq Party Girl 6 7:49:00 11.2, 9.3 10.23 29, 38, 50 (Avg:44)
306 Kate Pilley Abrock Lucinda 8 7:57:00 11.3, 9.0 10.06 40, 40, 46 (Avg:43)
312 April Bonham Lyndrian Genesis 9 7:58:00 11.8, 8.7 10.04 30, 41, 44 (Avg:42)
317 Gail Fisher Raymar Bennjamin 10 8:32:00 10.2, 8.6 9.38 31, 38, 43 (Avg:40)
313 Natasha Mitchell Raymar Hana 10 8:32:00 10.2, 8.6 9.38 32, 48, 50 (Avg:49)
311 Sheree Gray Happy Joseph 12 8:37:00 10.9, 8.0 9.28 34, 48, 43 (Avg:45)
314 Jennifer Caslick Karabil Abbra 13 8:38:00 10.4, 8.3 9.27 32, 40, 50 (Avg:45)
305 Lyall Cameron Master Bobby 14 8:46:00 8.0, 10.4 9.13 32, 46, 55 (Avg:50)
315 Rochelle Knihinicki Garnee Full Throttle 14 8:46:00 9.9, 8.3 9.13 42, 44, 47 (Avg:45)
316 Allison Knihinicki Ky 14 8:46:00 9.9, 8.3 9.13 32, 40, 47 (Avg:43)
310 Tangara Nolan Attallah Esq Jabu 17 8:59:00 9.4, 8.3 8.91 36, 40, 43 (Avg:41)
309 Ruth Van der Wegen Aloha Ameer 17 8:59:00 9.4, 8.3 8.91 33, 39, 36 (Avg:37)
303 Garry Bennett Karabil Yaningi Lame L1 0:00:00 12.4 - 29, 41 (Avg:41)
318 Hailey Knight Kintamani Jaffah Widthdrawn L1 0:00:00 - - 34, 48 (Avg:48)
319 Alan Lindsay Kintamani Silver Motif Widthdrawn L1 0:00:00 - - 32, 55 (Avg:55)
Lightweight
210 Allix Jones Castlebar Belair 1 6:09:00 14.9, 11.4 13.01 32, 46, 39 (Avg:42)
200 Dianne Luker Dumaresq Legends of Warr 2 7:05:00 14.8, 9.1 11.29 32, 44, 48 (Avg:46)
202 Sue Todd Shakari Bear 2 7:05:00 14.8, 9.1 11.29 39, 50, 60 (Avg:55)
206 Linda Logan Willow Valley Dartanyan 4 7:42:00 12.2, 9.0 10.39 30, 40, 48 (Avg:44)
209 Wendy Jones Castlebar Lima 5 7:48:00 10.4, 10.0 10.26 42, 41, 44 (Avg:42)
208 Julie Brooks Aloha Byshara 6 7:51:00 11.7, 8.9 10.19 32, 40, 40 (Avg:40)
204 Monique Milton Abrock Windy 7 7:57:00 11.3, 9.0 10.06 35, 44, 54 (Avg:49)
211 Emma Fletcher Diamond R Oscar 8 7:58:00 11.7, 8.7 10.04 32, 42, 46 (Avg:44)
212 Jessica Taylor Diamond R Amaya 8 7:58:00 11.8, 8.7 10.04 36, 44, 44 (Avg:44)
205 Sonya Ardill Splitters Creek Rosie 10 8:47:00 9.8, 8.4 9.11 31, 40, 42 (Avg:41)
207 Neroli Mitchell- Cooper Bilbo 10 8:47:00 9.8, 8.4 9.11 36, 48, 53 (Avg:50)
Junior
100 Indigo Noonan Orr-Brae Rajiyaah 1 (BC) 3:08:00 12.7 25.53 37, 39, 40 (Avg:39)
101 Sam Duff Box Hill Rogan Josh 2 7:48:00 10.4, 10.0 10.26 36, 44, 44 (Avg:44)